Time;durP1;ratioP1;P1;durP2;ratioP2;P2;SDS_P1;SDS_P2;PMS_P1;PMS_P2;Temp;Humidity;BMP_temperature;BMP_pressure;BME280_temperature;BME280_humidity;BME280_pressure;Samples;Min_cycle;Max_cycle;Signal;HPM_P1;HPM_P2
2021/12/26 00:00:16;;;;;;;10.18;6.30;;;;;;;;;;6207846;23;20013;-45
2021/12/26 00:02:42;;;;;;;9.27;6.78;;;;;;;;;;6206919;23;20449;-43
2021/12/26 00:05:08;;;;;;;12.07;7.05;;;;;;;;;;6208010;23;20016;-41
2021/12/26 00:07:33;;;;;;;11.30;6.82;;;;;;;;;;6206692;23;20027;-44
2021/12/26 00:09:59;;;;;;;11.40;7.18;;;;;;;;;;6207983;23;20013;-43
2021/12/26 00:12:24;;;;;;;11.07;7.47;;;;;;;;;;6206770;23;20005;-44
2021/12/26 00:14:49;;;;;;;13.48;8.30;;;;;;;;;;6207593;23;20083;-43
2021/12/26 00:17:14;;;;;;;13.38;7.50;;;;;;;;;;6206198;23;20031;-46
2021/12/26 00:19:40;;;;;;;14.68;8.80;;;;;;;;;;6207539;23;20019;-46
2021/12/26 00:22:05;;;;;;;12.80;7.93;;;;;;;;;;6207376;23;20055;-43
2021/12/26 00:24:30;;;;;;;13.85;8.20;;;;;;;;;;6206940;23;20139;-45
2021/12/26 00:26:56;;;;;;;17.17;9.00;;;;;;;;;;6207175;23;20095;-43
2021/12/26 00:29:21;;;;;;;11.20;7.07;;;;;;;;;;6206797;23;20318;-43
2021/12/26 00:31:46;;;;;;;12.25;7.82;;;;;;;;;;6207355;23;20008;-43
2021/12/26 00:34:12;;;;;;;11.40;7.78;;;;;;;;;;6207798;23;20472;-44
2021/12/26 00:36:37;;;;;;;11.32;6.70;;;;;;;;;;6204413;23;20070;-43
2021/12/26 00:39:03;;;;;;;14.13;8.32;;;;;;;;;;6207211;23;20009;-44
2021/12/26 00:41:29;;;;;;;12.00;6.85;;;;;;;;;;6206519;23;20028;-44
2021/12/26 00:43:54;;;;;;;10.82;7.35;;;;;;;;;;6207316;23;20043;-45
2021/12/26 00:46:20;;;;;;;10.57;6.82;;;;;;;;;;6206547;23;20040;-43
2021/12/26 00:48:45;;;;;;;8.82;6.07;;;;;;;;;;6207270;23;20001;-45
2021/12/26 00:51:10;;;;;;;12.73;7.18;;;;;;;;;;6206807;23;20008;-43
2021/12/26 00:53:36;;;;;;;9.30;7.32;;;;;;;;;;6206299;23;20024;-45
2021/12/26 00:56:01;;;;;;;13.75;6.72;;;;;;;;;;6206824;23;20004;-44
2021/12/26 00:58:26;;;;;;;12.18;7.45;;;;;;;;;;6204658;23;20047;-43
2021/12/26 01:00:52;;;;;;;10.10;6.70;;;;;;;;;;6206506;23;20015;-45
2021/12/26 01:03:17;;;;;;;12.13;7.25;;;;;;;;;;6206766;23;20016;-43
2021/12/26 01:05:44;;;;;;;8.77;6.43;;;;;;;;;;6206590;23;20017;-44
2021/12/26 01:08:12;;;;;;;10.95;6.30;;;;;;;;;;6207319;23;20020;-44
2021/12/26 01:10:50;;;;;;;8.77;6.75;;;;;;;;;;6230820;23;20297;-43
2021/12/26 01:13:28;;;;;;;9.68;6.28;;;;;;;;;;6208844;23;20008;-43
2021/12/26 01:15:57;;;;;;;8.80;6.13;;;;;;;;;;6209575;23;20024;-44
2021/12/26 01:18:23;;;;;;;10.20;6.53;;;;;;;;;;6206185;23;20023;-44
2021/12/26 01:20:54;;;;;;;9.73;6.57;;;;;;;;;;6209309;23;20008;-43
2021/12/26 01:23:20;;;;;;;10.60;6.28;;;;;;;;;;6208106;23;20461;-44
2021/12/26 01:25:46;;;;;;;10.07;7.22;;;;;;;;;;6209038;23;20009;-43
2021/12/26 01:28:12;;;;;;;10.55;6.90;;;;;;;;;;6208944;23;20102;-43
2021/12/26 01:30:38;;;;;;;11.07;6.15;;;;;;;;;;6207909;23;20019;-44
2021/12/26 01:33:05;;;;;;;10.52;6.22;;;;;;;;;;6208848;23;20008;-45
2021/12/26 01:35:30;;;;;;;8.80;5.38;;;;;;;;;;6208857;23;20020;-43
2021/12/26 01:37:55;;;;;;;11.85;5.10;;;;;;;;;;6208359;23;20070;-45
2021/12/26 01:40:21;;;;;;;8.60;5.72;;;;;;;;;;6207978;23;20020;-43
2021/12/26 01:42:46;;;;;;;9.13;5.78;;;;;;;;;;6208479;23;20008;-43
2021/12/26 01:45:11;;;;;;;7.85;5.28;;;;;;;;;;6208833;23;20352;-44
2021/12/26 01:47:37;;;;;;;8.60;6.18;;;;;;;;;;6207722;23;20350;-45
2021/12/26 01:50:03;;;;;;;9.50;5.78;;;;;;;;;;6209129;23;20345;-43
2021/12/26 01:52:28;;;;;;;8.85;6.07;;;;;;;;;;6207896;23;20453;-44
2021/12/26 01:55:22;;;;;;;8.55;5.30;;;;;;;;;;6209221;23;20012;-43
2021/12/26 01:57:39;;;;;;;7.65;5.28;;;;;;;;;;6209340;23;20012;-44
2021/12/26 02:00:05;;;;;;;8.50;5.15;;;;;;;;;;6208873;23;20009;-44
2021/12/26 02:02:30;;;;;;;9.20;5.20;;;;;;;;;;6207602;23;20334;-47
2021/12/26 02:04:56;;;;;;;8.20;5.70;;;;;;;;;;6208666;23;20016;-48
2021/12/26 02:07:21;;;;;;;8.65;5.50;;;;;;;;;;6207634;23;20456;-45
2021/12/26 02:09:46;;;;;;;8.13;4.78;;;;;;;;;;6208860;23;20341;-44
2021/12/26 02:12:12;;;;;;;7.45;5.47;;;;;;;;;;6208315;23;20005;-45
2021/12/26 02:14:37;;;;;;;7.18;4.88;;;;;;;;;;6208543;23;20019;-45
2021/12/26 02:17:02;;;;;;;6.90;4.10;;;;;;;;;;6208366;23;20567;-43
2021/12/26 02:19:28;;;;;;;5.55;4.05;;;;;;;;;;6208290;23;20383;-45
2021/12/26 02:22:11;;;;;;;5.70;3.40;;;;;;;;;;6208117;23;20327;-44
2021/12/26 02:27:32;;;;;;;3.05;2.70;;;;;;;;;;6209100;23;20063;-45
2021/12/26 02:30:08;;;;;;;3.08;2.17;;;;;;;;;;6208484;23;20008;-43
2021/12/26 02:32:33;;;;;;;3.38;2.67;;;;;;;;;;6208040;23;20009;-46
2021/12/26 02:34:59;;;;;;;3.05;2.20;;;;;;;;;;6208087;23;20012;-44
2021/12/26 02:37:25;;;;;;;2.50;2.15;;;;;;;;;;6208525;23;20500;-45
2021/12/26 02:39:51;;;;;;;2.70;2.00;;;;;;;;;;6207705;23;20052;-47
2021/12/26 02:42:17;;;;;;;2.65;1.98;;;;;;;;;;6205615;23;20437;-47
2021/12/26 02:44:42;;;;;;;2.15;1.88;;;;;;;;;;6208477;23;20009;-44
2021/12/26 02:47:08;;;;;;;2.70;2.03;;;;;;;;;;6208499;23;20102;-43
2021/12/26 02:49:33;;;;;;;3.55;1.98;;;;;;;;;;6207185;23;20020;-46
2021/12/26 02:51:58;;;;;;;2.50;1.77;;;;;;;;;;6207639;23;20012;-46
2021/12/26 02:54:24;;;;;;;3.20;2.40;;;;;;;;;;6208011;23;20047;-43
2021/12/26 02:56:50;;;;;;;3.58;2.42;;;;;;;;;;6207927;23;20029;-45
2021/12/26 02:59:17;;;;;;;4.75;2.83;;;;;;;;;;6207071;23;20024;-45
2021/12/26 03:01:42;;;;;;;4.20;2.83;;;;;;;;;;6208398;23;20043;-44
2021/12/26 03:04:09;;;;;;;3.30;2.78;;;;;;;;;;6207947;23;20005;-44
2021/12/26 03:06:43;;;;;;;3.13;2.40;;;;;;;;;;6207593;23;20016;-43
2021/12/26 03:09:08;;;;;;;3.25;2.60;;;;;;;;;;6208147;23;20012;-43
2021/12/26 03:11:35;;;;;;;4.68;2.80;;;;;;;;;;6207473;23;20020;-43
2021/12/26 03:14:00;;;;;;;4.03;2.45;;;;;;;;;;6207839;23;20124;-43
2021/12/26 03:16:26;;;;;;;3.92;2.88;;;;;;;;;;6207507;23;20061;-43
2021/12/26 03:18:55;;;;;;;6.07;4.30;;;;;;;;;;6207460;23;20737;-44
2021/12/26 03:21:20;;;;;;;3.08;2.58;;;;;;;;;;6207866;23;20037;-43
2021/12/26 03:23:45;;;;;;;4.05;3.00;;;;;;;;;;6207352;23;20059;-43
2021/12/26 03:26:11;;;;;;;2.80;2.50;;;;;;;;;;6208037;23;20341;-43
2021/12/26 03:28:36;;;;;;;4.93;2.97;;;;;;;;;;6206945;23;20009;-45
2021/12/26 03:31:02;;;;;;;3.17;2.72;;;;;;;;;;6208418;23;20039;-45
2021/12/26 03:33:28;;;;;;;4.55;3.03;;;;;;;;;;6206662;23;20036;-44
2021/12/26 03:35:53;;;;;;;4.15;2.85;;;;;;;;;;6207973;23;20012;-45
2021/12/26 03:38:19;;;;;;;4.32;2.85;;;;;;;;;;6230033;23;20016;-46
2021/12/26 03:40:45;;;;;;;3.83;2.67;;;;;;;;;;6208112;23;20000;-45
2021/12/26 03:43:11;;;;;;;4.30;2.92;;;;;;;;;;6207328;23;20015;-45
2021/12/26 03:45:36;;;;;;;3.20;2.40;;;;;;;;;;6207657;23;20015;-45
2021/12/26 03:48:03;;;;;;;3.42;2.38;;;;;;;;;;6207092;23;20499;-45
2021/12/26 03:50:30;;;;;;;3.20;2.90;;;;;;;;;;6151703;22;20025;-45
2021/12/26 03:52:58;;;;;;;6.35;2.05;;;;;;;;;;6173246;23;20023;-45
2021/12/26 03:55:26;;;;;;;3.67;2.55;;;;;;;;;;6176976;23;20021;-44
2021/12/26 03:57:52;;;;;;;3.85;1.85;;;;;;;;;;6176996;23;20024;-46
2021/12/26 04:00:18;;;;;;;2.67;1.80;;;;;;;;;;6177083;23;20005;-45
2021/12/26 04:02:43;;;;;;;3.08;2.08;;;;;;;;;;6175780;23;20006;-44
2021/12/26 04:05:10;;;;;;;2.45;1.98;;;;;;;;;;6178293;23;20013;-44
2021/12/26 04:07:35;;;;;;;3.25;2.45;;;;;;;;;;6176953;23;20013;-44
2021/12/26 04:10:01;;;;;;;4.45;2.20;;;;;;;;;;6176630;23;20012;-45
2021/12/26 04:12:29;;;;;;;2.80;2.15;;;;;;;;;;6177875;23;20092;-44
2021/12/26 04:14:54;;;;;;;3.17;2.50;;;;;;;;;;6177967;23;20029;-44
2021/12/26 04:17:19;;;;;;;3.65;3.03;;;;;;;;;;6177270;23;20028;-45
2021/12/26 04:19:45;;;;;;;3.92;2.25;;;;;;;;;;6176189;23;20008;-44
2021/12/26 04:22:10;;;;;;;4.93;3.05;;;;;;;;;;6177985;23;20016;-45
2021/12/26 04:24:35;;;;;;;3.40;2.58;;;;;;;;;;6177587;23;20009;-44
2021/12/26 04:27:00;;;;;;;4.53;2.85;;;;;;;;;;6178201;23;20017;-44
2021/12/26 04:29:26;;;;;;;3.97;2.88;;;;;;;;;;6200329;23;20088;-44
2021/12/26 04:31:51;;;;;;;4.78;3.15;;;;;;;;;;6177926;23;20112;-44
2021/12/26 04:34:16;;;;;;;4.35;2.78;;;;;;;;;;6177495;23;20426;-46
2021/12/26 04:36:41;;;;;;;3.83;3.13;;;;;;;;;;6177453;23;20008;-45
2021/12/26 04:39:07;;;;;;;4.28;3.28;;;;;;;;;;6178094;23;20009;-45
2021/12/26 04:41:32;;;;;;;3.85;3.42;;;;;;;;;;6177192;23;20406;-44
2021/12/26 04:43:57;;;;;;;6.18;3.92;;;;;;;;;;6177174;23;20013;-46
2021/12/26 04:46:22;;;;;;;5.88;4.60;;;;;;;;;;6177312;23;20013;-43
2021/12/26 04:48:48;;;;;;;6.28;3.95;;;;;;;;;;6177703;23;20100;-43
2021/12/26 04:51:13;;;;;;;6.57;4.55;;;;;;;;;;6203925;23;20016;-42
2021/12/26 04:53:39;;;;;;;6.53;3.95;;;;;;;;;;6206061;23;20015;-44
2021/12/26 04:56:05;;;;;;;5.75;4.53;;;;;;;;;;6207483;23;20610;-47
2021/12/26 04:58:30;;;;;;;7.40;4.53;;;;;;;;;;6206819;23;20028;-46
2021/12/26 05:00:56;;;;;;;6.65;4.63;;;;;;;;;;6207885;23;20017;-44
2021/12/26 05:03:21;;;;;;;6.68;4.60;;;;;;;;;;6230229;23;20047;-45
2021/12/26 05:05:47;;;;;;;9.82;4.95;;;;;;;;;;6207454;23;20004;-44
2021/12/26 05:08:12;;;;;;;8.57;4.88;;;;;;;;;;6207833;23;20348;-48
2021/12/26 05:10:38;;;;;;;8.15;5.43;;;;;;;;;;6207150;23;20032;-49
2021/12/26 05:13:03;;;;;;;14.07;5.75;;;;;;;;;;6230891;23;20032;-45
2021/12/26 05:15:29;;;;;;;9.85;5.15;;;;;;;;;;6206496;23;20009;-48
2021/12/26 05:17:55;;;;;;;10.15;5.50;;;;;;;;;;6207516;23;20074;-46
2021/12/26 05:20:21;;;;;;;7.80;5.47;;;;;;;;;;6207461;23;20083;-45
2021/12/26 05:22:47;;;;;;;9.10;5.63;;;;;;;;;;6207472;23;20013;-51
2021/12/26 05:25:13;;;;;;;7.57;5.03;;;;;;;;;;6207292;23;20005;-44
2021/12/26 05:27:38;;;;;;;8.23;5.65;;;;;;;;;;6206996;23;20000;-44
2021/12/26 05:30:05;;;;;;;7.65;5.18;;;;;;;;;;6207638;23;20024;-45
2021/12/26 05:32:30;;;;;;;9.88;6.43;;;;;;;;;;6207151;23;20266;-45
2021/12/26 05:34:55;;;;;;;8.07;5.88;;;;;;;;;;6207349;23;20012;-45
2021/12/26 05:37:20;;;;;;;9.35;5.70;;;;;;;;;;6206744;23;20023;-44
2021/12/26 05:39:46;;;;;;;9.73;5.65;;;;;;;;;;6207268;23;20542;-44
2021/12/26 05:42:15;;;;;;;8.13;5.80;;;;;;;;;;6207437;23;20499;-46
2021/12/26 05:44:41;;;;;;;8.07;5.97;;;;;;;;;;6206771;23;20019;-44
2021/12/26 05:47:06;;;;;;;7.65;5.43;;;;;;;;;;6207395;23;20084;-45
2021/12/26 05:49:32;;;;;;;8.75;5.70;;;;;;;;;;6206642;23;20333;-46
2021/12/26 05:51:57;;;;;;;7.35;5.20;;;;;;;;;;6207556;23;20000;-44
2021/12/26 05:54:22;;;;;;;6.18;4.03;;;;;;;;;;6206526;23;20039;-44
2021/12/26 05:56:47;;;;;;;7.00;4.43;;;;;;;;;;6208590;23;20013;-44
2021/12/26 05:59:13;;;;;;;6.10;4.10;;;;;;;;;;6209376;23;20021;-45
2021/12/26 06:01:38;;;;;;;9.70;4.00;;;;;;;;;;6208498;23;20005;-45
2021/12/26 06:04:03;;;;;;;6.32;4.35;;;;;;;;;;6208896;23;20327;-44
2021/12/26 06:06:29;;;;;;;5.22;3.47;;;;;;;;;;6208877;23;20012;-46
2021/12/26 06:08:54;;;;;;;5.47;3.45;;;;;;;;;;6207191;23;20009;-45
2021/12/26 06:11:19;;;;;;;5.43;4.18;;;;;;;;;;6207006;23;20333;-44
2021/12/26 06:13:44;;;;;;;7.50;4.07;;;;;;;;;;6208934;23;20035;-45
2021/12/26 06:16:10;;;;;;;6.70;4.25;;;;;;;;;;6207558;23;20009;-45
2021/12/26 06:18:35;;;;;;;8.38;4.60;;;;;;;;;;6208582;23;20023;-44
2021/12/26 06:21:00;;;;;;;8.45;4.28;;;;;;;;;;6208938;23;20087;-44
2021/12/26 06:23:25;;;;;;;6.55;4.80;;;;;;;;;;6208503;23;20114;-46
2021/12/26 06:25:51;;;;;;;7.60;4.47;;;;;;;;;;6208569;23;20080;-44
2021/12/26 06:28:16;;;;;;;8.43;4.72;;;;;;;;;;6205586;23;20047;-45
2021/12/26 06:30:41;;;;;;;9.80;4.55;;;;;;;;;;6208534;23;20001;-46
2021/12/26 06:33:06;;;;;;;8.25;5.57;;;;;;;;;;6209081;23;20506;-46
2021/12/26 06:35:32;;;;;;;11.30;5.65;;;;;;;;;;6207810;23;20070;-45
2021/12/26 06:37:57;;;;;;;10.23;5.97;;;;;;;;;;6181828;23;20075;-47
2021/12/26 06:40:22;;;;;;;8.13;5.07;;;;;;;;;;6208279;23;20137;-46
2021/12/26 06:42:50;;;;;;;10.20;6.63;;;;;;;;;;6208947;23;20574;-43
2021/12/26 06:45:17;;;;;;;10.07;5.65;;;;;;;;;;6207901;23;20433;-47
2021/12/26 06:47:46;;;;;;;9.75;5.75;;;;;;;;;;6209126;23;20340;-43
2021/12/26 06:50:12;;;;;;;10.35;6.40;;;;;;;;;;6208386;23;20023;-44
2021/12/26 06:52:37;;;;;;;11.63;6.43;;;;;;;;;;6207944;23;20079;-44
2021/12/26 06:55:03;;;;;;;10.82;6.55;;;;;;;;;;6208505;23;20008;-45
2021/12/26 06:57:28;;;;;;;10.32;6.28;;;;;;;;;;6207082;23;20024;-46
2021/12/26 06:59:53;;;;;;;8.32;6.22;;;;;;;;;;6208393;23;20020;-46
2021/12/26 07:02:18;;;;;;;9.90;6.47;;;;;;;;;;6207776;23;20005;-43
2021/12/26 07:04:44;;;;;;;10.35;6.32;;;;;;;;;;6208459;23;20009;-46
2021/12/26 07:07:09;;;;;;;11.65;7.15;;;;;;;;;;6207951;23;20360;-45
2021/12/26 07:09:34;;;;;;;12.05;6.55;;;;;;;;;;6208286;23;20036;-43
2021/12/26 07:11:59;;;;;;;13.35;5.82;;;;;;;;;;6208118;23;20495;-47
2021/12/26 07:14:25;;;;;;;14.38;6.72;;;;;;;;;;6207424;23;20016;-46
2021/12/26 07:16:50;;;;;;;11.75;6.85;;;;;;;;;;6208087;23;20429;-45
2021/12/26 07:19:15;;;;;;;10.40;6.40;;;;;;;;;;6207620;23;20541;-45
2021/12/26 07:21:41;;;;;;;9.35;6.15;;;;;;;;;;6208168;23;20020;-44
2021/12/26 07:24:06;;;;;;;15.43;6.65;;;;;;;;;;6208281;23;20650;-44
2021/12/26 07:26:32;;;;;;;20.58;7.57;;;;;;;;;;6207330;23;20009;-44
2021/12/26 07:28:57;;;;;;;9.70;6.10;;;;;;;;;;6208546;23;20063;-44
2021/12/26 07:31:22;;;;;;;11.05;6.82;;;;;;;;;;6207543;23;20488;-43
2021/12/26 07:33:47;;;;;;;13.77;7.35;;;;;;;;;;6208245;23;20072;-43
2021/12/26 07:36:13;;;;;;;11.02;6.03;;;;;;;;;;6207780;23;20035;-44
2021/12/26 07:38:38;;;;;;;9.98;6.22;;;;;;;;;;6207808;23;20475;-44
2021/12/26 07:41:03;;;;;;;12.80;6.40;;;;;;;;;;6208241;23;20004;-47
2021/12/26 07:43:29;;;;;;;12.80;7.45;;;;;;;;;;6207597;23;20032;-45
2021/12/26 07:45:54;;;;;;;15.98;7.13;;;;;;;;;;6207945;23;20015;-44
2021/12/26 07:48:19;;;;;;;12.10;6.50;;;;;;;;;;6207992;23;20013;-46
2021/12/26 07:50:44;;;;;;;13.07;6.40;;;;;;;;;;6207478;23;20027;-44
2021/12/26 07:53:11;;;;;;;12.02;7.10;;;;;;;;;;6208436;23;20005;-46
2021/12/26 07:55:37;;;;;;;12.20;6.43;;;;;;;;;;6206978;23;20016;-44
2021/12/26 07:58:02;;;;;;;18.02;6.38;;;;;;;;;;6208127;23;20025;-43
2021/12/26 08:00:28;;;;;;;14.00;7.85;;;;;;;;;;6206319;23;20023;-44
2021/12/26 08:02:54;;;;;;;12.63;6.57;;;;;;;;;;6208182;23;20459;-44
2021/12/26 08:05:20;;;;;;;16.10;8.18;;;;;;;;;;6207052;23;20004;-45
2021/12/26 08:07:45;;;;;;;11.55;7.15;;;;;;;;;;6208119;23;20317;-44
2021/12/26 08:10:10;;;;;;;13.45;6.82;;;;;;;;;;6207790;23;20016;-45
2021/12/26 08:12:36;;;;;;;13.23;6.90;;;;;;;;;;6207644;23;20148;-47
2021/12/26 08:15:02;;;;;;;10.57;6.78;;;;;;;;;;6207466;23;20546;-44
2021/12/26 08:17:30;;;;;;;12.90;6.65;;;;;;;;;;6207446;23;20126;-44
2021/12/26 08:19:56;;;;;;;12.07;6.88;;;;;;;;;;6207538;23;20005;-44
2021/12/26 08:22:21;;;;;;;12.48;6.70;;;;;;;;;;6207625;23;20083;-44
2021/12/26 08:24:47;;;;;;;11.65;7.38;;;;;;;;;;6207562;23;20028;-44
2021/12/26 08:27:12;;;;;;;13.80;7.15;;;;;;;;;;6208022;23;20016;-46
2021/12/26 08:29:37;;;;;;;16.60;7.30;;;;;;;;;;6206865;23;20005;-44
2021/12/26 08:32:03;;;;;;;13.27;6.78;;;;;;;;;;6207879;23;20013;-44
2021/12/26 08:34:28;;;;;;;12.73;7.25;;;;;;;;;;6207338;23;20402;-45
2021/12/26 08:36:59;;;;;;;10.82;7.25;;;;;;;;;;6207144;23;20009;-45
2021/12/26 08:39:25;;;;;;;13.38;6.90;;;;;;;;;;6206823;23;20032;-46
2021/12/26 08:41:50;;;;;;;10.48;7.85;;;;;;;;;;6207676;23;20016;-44
2021/12/26 08:44:16;;;;;;;12.18;6.78;;;;;;;;;;6206757;23;20012;-45
2021/12/26 08:46:43;;;;;;;11.60;6.65;;;;;;;;;;6207980;23;20345;-44
2021/12/26 08:49:08;;;;;;;12.32;7.45;;;;;;;;;;6207886;23;20009;-46
2021/12/26 08:51:33;;;;;;;16.23;7.32;;;;;;;;;;6207093;23;20445;-47
2021/12/26 08:54:00;;;;;;;15.23;7.75;;;;;;;;;;6207168;23;20504;-45
2021/12/26 08:56:25;;;;;;;11.23;7.15;;;;;;;;;;6206865;23;20088;-44
2021/12/26 08:58:50;;;;;;;13.88;8.30;;;;;;;;;;6207500;23;20054;-44
2021/12/26 09:01:15;;;;;;;12.35;7.47;;;;;;;;;;6207021;23;20005;-43
2021/12/26 09:03:41;;;;;;;14.90;7.22;;;;;;;;;;6207175;23;20075;-44
2021/12/26 09:06:07;;;;;;;15.13;8.10;;;;;;;;;;6207758;23;20013;-44
2021/12/26 09:08:32;;;;;;;17.88;8.20;;;;;;;;;;6206587;23;20017;-44
2021/12/26 09:10:58;;;;;;;12.73;7.43;;;;;;;;;;6207543;23;20062;-44
2021/12/26 09:13:23;;;;;;;12.85;7.57;;;;;;;;;;6206850;23;20459;-44
2021/12/26 09:15:48;;;;;;;15.82;8.55;;;;;;;;;;6207562;23;20008;-45
2021/12/26 09:18:14;;;;;;;14.23;8.18;;;;;;;;;;6206292;23;20380;-44
2021/12/26 09:20:39;;;;;;;13.60;7.53;;;;;;;;;;6207420;23;20051;-43
2021/12/26 09:23:04;;;;;;;13.15;7.03;;;;;;;;;;6207673;23;20055;-44
2021/12/26 09:25:30;;;;;;;17.73;7.82;;;;;;;;;;6207031;23;20063;-44
2021/12/26 09:27:55;;;;;;;18.83;8.18;;;;;;;;;;6206848;23;20013;-44
2021/12/26 09:30:20;;;;;;;15.35;8.23;;;;;;;;;;6207421;23;20076;-45
2021/12/26 09:32:46;;;;;;;11.63;7.25;;;;;;;;;;6209321;23;20344;-44
2021/12/26 09:35:11;;;;;;;14.05;7.53;;;;;;;;;;6209488;23;20467;-45
2021/12/26 09:37:37;;;;;;;23.73;8.45;;;;;;;;;;6208071;23;20347;-43
2021/12/26 09:40:03;;;;;;;17.13;7.30;;;;;;;;;;6209823;23;20078;-44
2021/12/26 09:42:29;;;;;;;18.30;8.98;;;;;;;;;;6208396;23;20834;-45
2021/12/26 09:44:54;;;;;;;21.20;8.90;;;;;;;;;;6209111;23;20024;-43
2021/12/26 09:47:19;;;;;;;16.52;8.32;;;;;;;;;;6208503;23;20009;-44
2021/12/26 09:49:44;;;;;;;13.75;7.88;;;;;;;;;;6209106;23;20074;-44
2021/12/26 09:52:10;;;;;;;18.15;8.20;;;;;;;;;;6208995;23;20027;-44
2021/12/26 09:54:36;;;;;;;14.82;8.70;;;;;;;;;;6208958;23;20020;-43
2021/12/26 09:57:01;;;;;;;12.88;7.28;;;;;;;;;;6208503;23;20016;-44
2021/12/26 09:59:27;;;;;;;18.35;9.35;;;;;;;;;;6208684;23;20017;-43
2021/12/26 10:01:56;;;;;;;15.57;9.02;;;;;;;;;;6209245;23;20549;-43
2021/12/26 10:04:31;;;;;;;14.85;8.95;;;;;;;;;;6208883;23;20452;-43
2021/12/26 10:06:57;;;;;;;17.15;8.52;;;;;;;;;;6208796;23;20445;-43
2021/12/26 10:09:22;;;;;;;17.50;8.00;;;;;;;;;;6208812;23;20016;-44
2021/12/26 10:11:50;;;;;;;16.70;8.68;;;;;;;;;;6208732;23;20004;-46
2021/12/26 10:14:15;;;;;;;16.60;9.52;;;;;;;;;;6208809;23;20032;-46
2021/12/26 10:16:42;;;;;;;19.27;9.10;;;;;;;;;;6208916;23;20100;-44
2021/12/26 10:19:08;;;;;;;13.75;8.30;;;;;;;;;;6209573;23;20016;-46
2021/12/26 10:21:40;;;;;;;16.58;8.70;;;;;;;;;;6208897;23;20404;-44
2021/12/26 10:24:24;;;;;;;16.52;8.43;;;;;;;;;;6209339;23;20095;-44
2021/12/26 10:26:56;;;;;;;21.63;9.13;;;;;;;;;;6208134;23;20011;-43
2021/12/26 10:29:23;;;;;;;14.65;7.03;;;;;;;;;;6206368;23;20016;-45
2021/12/26 10:31:50;;;;;;;13.75;8.93;;;;;;;;;;6209225;23;20008;-46
2021/12/26 10:34:21;;;;;;;20.63;7.95;;;;;;;;;;6208443;23;20012;-44
2021/12/26 10:36:47;;;;;;;15.77;8.55;;;;;;;;;;6209027;23;20433;-44
2021/12/26 10:39:14;;;;;;;17.48;9.02;;;;;;;;;;6208961;23;20013;-45
2021/12/26 10:41:41;;;;;;;18.30;8.98;;;;;;;;;;6208335;23;20019;-47
2021/12/26 10:44:06;;;;;;;15.15;9.57;;;;;;;;;;6231872;23;20411;-45
2021/12/26 10:46:31;;;;;;;16.45;8.70;;;;;;;;;;6206422;23;20152;-45
2021/12/26 10:49:17;;;;;;;19.75;9.63;;;;;;;;;;6208467;23;20440;-44
2021/12/26 10:51:42;;;;;;;21.20;9.80;;;;;;;;;;6208711;23;20021;-45
2021/12/26 10:54:15;;;;;;;16.15;8.57;;;;;;;;;;6208525;23;20011;-45
2021/12/26 10:56:40;;;;;;;18.17;9.30;;;;;;;;;;6208671;23;20016;-46
2021/12/26 10:59:18;;;;;;;18.30;9.85;;;;;;;;;;6208398;23;20013;-46
2021/12/26 11:01:43;;;;;;;15.73;9.50;;;;;;;;;;6207942;23;20008;-47
2021/12/26 11:04:11;;;;;;;18.83;9.63;;;;;;;;;;6208681;23;20016;-45
2021/12/26 11:06:55;;;;;;;24.65;10.60;;;;;;;;;;6207492;23;20013;-46
2021/12/26 11:09:20;;;;;;;20.70;9.75;;;;;;;;;;6208178;23;20034;-45
2021/12/26 11:12:06;;;;;;;19.92;10.18;;;;;;;;;;6208531;23;20039;-45
2021/12/26 11:14:31;;;;;;;21.25;10.60;;;;;;;;;;6207931;23;20013;-45
2021/12/26 11:16:56;;;;;;;25.60;11.70;;;;;;;;;;6207936;23;20020;-46
2021/12/26 11:19:41;;;;;;;20.42;9.15;;;;;;;;;;6207667;23;20004;-45
2021/12/26 11:22:06;;;;;;;24.95;11.45;;;;;;;;;;6208527;23;20020;-46
2021/12/26 11:24:32;;;;;;;23.38;9.90;;;;;;;;;;6207804;23;20016;-45
2021/12/26 11:26:57;;;;;;;19.38;9.90;;;;;;;;;;6208132;23;20013;-44
2021/12/26 11:29:23;;;;;;;24.50;11.00;;;;;;;;;;6207660;23;20008;-47
2021/12/26 11:31:53;;;;;;;18.77;10.50;;;;;;;;;;6208252;23;20032;-45
2021/12/26 11:34:18;;;;;;;21.23;9.88;;;;;;;;;;6206256;23;20128;-47
2021/12/26 11:36:45;;;;;;;20.20;9.57;;;;;;;;;;6208094;23;20036;-45
2021/12/26 11:39:10;;;;;;;19.92;8.20;;;;;;;;;;6207889;23;20013;-44
2021/12/26 11:41:46;;;;;;;16.65;8.52;;;;;;;;;;6207629;23;20345;-45
2021/12/26 11:44:30;;;;;;;16.83;7.47;;;;;;;;;;6206175;23;20011;-44
2021/12/26 11:47:14;;;;;;;15.13;6.97;;;;;;;;;;6208297;23;20071;-46
2021/12/26 11:50:03;;;;;;;18.15;6.60;;;;;;;;;;6207596;23;20020;-45
2021/12/26 11:52:49;;;;;;;18.02;6.50;;;;;;;;;;6207341;23;20518;-45
2021/12/26 11:55:30;;;;;;;13.68;6.03;;;;;;;;;;6207399;23;20012;-46
2021/12/26 11:57:55;;;;;;;9.77;5.65;;;;;;;;;;6207954;23;20078;-44
2021/12/26 12:00:28;;;;;;;10.52;4.80;;;;;;;;;;6207554;23;20034;-44
2021/12/26 12:02:54;;;;;;;11.93;5.63;;;;;;;;;;6207898;23;20453;-47
2021/12/26 12:05:36;;;;;;;11.80;5.72;;;;;;;;;;6207379;23;20013;-45
2021/12/26 12:08:11;;;;;;;12.43;5.95;;;;;;;;;;6206963;23;20019;-46
2021/12/26 12:10:37;;;;;;;12.65;5.57;;;;;;;;;;6207339;23;20465;-45
2021/12/26 12:13:05;;;;;;;11.65;4.93;;;;;;;;;;6208119;23;20036;-44
2021/12/26 12:15:42;;;;;;;9.93;5.70;;;;;;;;;;6207215;23;20012;-45
2021/12/26 12:18:09;;;;;;;8.48;5.38;;;;;;;;;;6207537;23;20472;-44
2021/12/26 12:20:34;;;;;;;11.90;6.35;;;;;;;;;;6207190;23;20482;-44
2021/12/26 12:23:08;;;;;;;10.73;4.95;;;;;;;;;;6208361;23;20005;-44
2021/12/26 12:25:34;;;;;;;9.82;5.28;;;;;;;;;;6207726;23;20012;-45
2021/12/26 12:28:05;;;;;;;11.63;5.65;;;;;;;;;;6207792;23;20099;-46
2021/12/26 12:30:30;;;;;;;9.23;4.57;;;;;;;;;;6207159;23;20016;-45
2021/12/26 12:33:14;;;;;;;10.32;4.88;;;;;;;;;;6207481;23;20127;-45
2021/12/26 12:35:47;;;;;;;8.77;5.30;;;;;;;;;;6207504;23;20013;-47
2021/12/26 12:38:22;;;;;;;9.02;4.47;;;;;;;;;;6207694;23;20021;-45
2021/12/26 12:40:47;;;;;;;9.23;4.60;;;;;;;;;;6207398;23;20036;-44
2021/12/26 12:43:15;;;;;;;9.15;3.63;;;;;;;;;;6207203;23;20013;-46
2021/12/26 12:45:53;;;;;;;10.27;3.80;;;;;;;;;;6207477;23;20024;-45
2021/12/26 12:48:26;;;;;;;8.63;4.03;;;;;;;;;;6206953;23;20008;-47
2021/12/26 12:50:52;;;;;;;9.70;4.15;;;;;;;;;;6207133;23;20142;-46
2021/12/26 12:53:35;;;;;;;10.27;3.95;;;;;;;;;;6207212;23;20008;-46
2021/12/26 12:56:01;;;;;;;9.90;4.80;;;;;;;;;;6207272;23;20103;-45
2021/12/26 12:58:31;;;;;;;10.32;3.97;;;;;;;;;;6206450;23;20457;-45
2021/12/26 13:00:57;;;;;;;10.32;4.18;;;;;;;;;;6207499;23;20005;-46
2021/12/26 13:03:23;;;;;;;9.38;4.22;;;;;;;;;;6206605;23;20009;-47
2021/12/26 13:05:48;;;;;;;9.27;4.35;;;;;;;;;;6207557;23;20440;-46
2021/12/26 13:08:16;;;;;;;14.00;5.60;;;;;;;;;;6204995;23;20424;-46
2021/12/26 13:10:41;;;;;;;15.30;5.78;;;;;;;;;;6207566;23;20009;-45
2021/12/26 13:13:08;;;;;;;12.93;5.43;;;;;;;;;;6207342;23;20024;-45
2021/12/26 13:15:36;;;;;;;15.50;5.65;;;;;;;;;;6207197;23;20012;-45
2021/12/26 13:18:08;;;;;;;13.68;6.15;;;;;;;;;;6207389;23;20687;-45
2021/12/26 13:20:33;;;;;;;14.98;6.45;;;;;;;;;;6207175;23;20017;-45
2021/12/26 13:23:04;;;;;;;11.07;5.40;;;;;;;;;;6207011;23;20062;-47
2021/12/26 13:25:37;;;;;;;10.90;5.78;;;;;;;;;;6205382;23;20015;-46
2021/12/26 13:28:16;;;;;;;10.90;5.22;;;;;;;;;;6205138;23;20004;-45
2021/12/26 13:30:42;;;;;;;;;;;;;;;;;;6207357;23;20013;-44
2021/12/26 13:33:18;;;;;;;12.18;5.95;;;;;;;;;;6207401;23;19975;-45
2021/12/26 13:35:43;;;;;;;14.55;4.70;;;;;;;;;;6207150;23;20005;-44
2021/12/26 13:38:09;;;;;;;13.65;5.20;;;;;;;;;;6207324;23;20020;-44
2021/12/26 13:40:42;;;;;;;12.55;4.82;;;;;;;;;;6206919;23;20065;-45
2021/12/26 13:43:07;;;;;;;11.73;3.92;;;;;;;;;;6207169;23;20088;-44
2021/12/26 13:45:41;;;;;;;11.65;4.35;;;;;;;;;;6206669;23;20091;-44
2021/12/26 13:48:08;;;;;;;10.93;5.25;;;;;;;;;;6207006;23;20012;-45
2021/12/26 13:50:33;;;;;;;6.45;3.33;;;;;;;;;;6206462;23;20030;-44
2021/12/26 13:53:03;;;;;;;8.77;3.67;;;;;;;;;;6207304;23;20013;-45
2021/12/26 13:55:31;;;;;;;12.85;3.75;;;;;;;;;;6206874;23;20222;-45
2021/12/26 13:58:00;;;;;;;10.25;3.58;;;;;;;;;;6207178;23;20009;-45
2021/12/26 14:00:25;;;;;;;10.73;3.60;;;;;;;;;;6206840;23;20024;-45
2021/12/26 14:02:51;;;;;;;5.57;3.13;;;;;;;;;;6207488;23;20012;-44
2021/12/26 14:05:18;;;;;;;8.55;3.80;;;;;;;;;;6206528;23;20453;-45
2021/12/26 14:07:49;;;;;;;12.63;3.35;;;;;;;;;;6207477;23;20005;-45
2021/12/26 14:10:21;;;;;;;12.70;3.53;;;;;;;;;;6206489;23;20437;-46
2021/12/26 14:12:49;;;;;;;9.05;4.22;;;;;;;;;;6207597;23;20012;-47
2021/12/26 14:18:00;;;;;;;9.73;2.97;;;;;;;;;;6208318;23;20334;-45
2021/12/26 14:20:26;;;;;;;10.23;2.60;;;;;;;;;;6208176;23;20353;-45
2021/12/26 14:22:52;;;;;;;5.93;2.25;;;;;;;;;;6208962;23;20005;-45
2021/12/26 14:25:17;;;;;;;9.00;3.08;;;;;;;;;;6208798;23;20008;-44
2021/12/26 14:27:43;;;;;;;8.15;2.58;;;;;;;;;;6208839;23;20009;-44
2021/12/26 14:30:10;;;;;;;4.18;2.10;;;;;;;;;;6208984;23;20024;-43
2021/12/26 14:32:35;;;;;;;6.57;2.40;;;;;;;;;;6208345;23;20140;-45
2021/12/26 14:35:00;;;;;;;4.00;1.90;;;;;;;;;;6209095;23;20039;-44
2021/12/26 14:37:26;;;;;;;4.32;2.35;;;;;;;;;;6208308;23;20044;-45
2021/12/26 14:39:55;;;;;;;6.32;2.40;;;;;;;;;;6208594;23;20329;-45